X  Close Metar Aviation Weather Data     EBBR Brussels Airport
Temperature
23°C Temperature
19°C Dewpoint
78% Humidity



Wind
3 KM/H
2 MPH
1 M/S
2 KTS



Calm
North
Current Conditions

Clear Clear
Pressure 1010.92 (hPa) - 29.85 (inHg)
Visibility 6.2 (mile) - 10 (km)
Airport
Airport-code EBBR

Location: Brussels Airport
Distance: 14 (km)

Metar:
EBBR 122220Z VRB02KT CAVOK 23/19 Q1011 NOSIG

Time: 08-13-2020 00:20 CEST